createdAt,value
2018-08-30T00:01:25.300Z,73.04
2018-08-30T00:03:53.297Z,73.71
2018-08-30T00:06:21.288Z,74.00
2018-08-30T00:08:49.277Z,74.04
2018-08-30T00:11:17.301Z,74.97
2018-08-30T00:13:45.292Z,74.36
2018-08-30T00:16:13.316Z,75.50
2018-08-30T00:18:41.465Z,74.53
2018-08-30T00:21:09.460Z,75.54
2018-08-30T00:23:37.545Z,73.96
2018-08-30T00:26:05.577Z,75.03
2018-08-30T00:28:33.597Z,75.18
2018-08-30T00:31:01.617Z,74.86
2018-08-30T00:33:29.820Z,74.97
2018-08-30T00:35:57.916Z,75.39
2018-08-30T00:38:25.960Z,75.65
2018-08-30T00:40:53.960Z,76.65
2018-08-30T00:43:21.951Z,76.02
2018-08-30T00:45:50.013Z,75.64
2018-08-30T00:48:18.066Z,76.70
2018-08-30T00:50:46.044Z,76.28
2018-08-30T00:53:14.052Z,77.11
2018-08-30T00:55:42.270Z,77.23
2018-08-30T00:58:10.273Z,76.24
2018-08-30T01:00:38.280Z,76.85
2018-08-30T01:03:06.284Z,76.92
2018-08-30T01:05:34.272Z,77.23
2018-08-30T01:08:02.300Z,77.75
2018-08-30T01:10:30.412Z,77.83
2018-08-30T01:12:58.432Z,77.09
2018-08-30T01:15:27.256Z,77.34
2018-08-30T01:17:55.700Z,76.98
2018-08-30T01:20:23.864Z,78.28
2018-08-30T01:22:52.044Z,77.83
2018-08-30T01:25:20.213Z,77.56
2018-08-30T01:27:48.440Z,78.87
2018-08-30T01:30:16.560Z,79.56
2018-08-30T01:32:44.595Z,80.77
2018-08-30T01:35:12.592Z,80.51
2018-08-30T01:37:40.591Z,80.37
2018-08-30T01:40:08.631Z,81.36
2018-08-30T01:42:36.654Z,81.87
2018-08-30T01:45:04.660Z,82.34
2018-08-30T01:47:32.709Z,82.21
2018-08-30T01:50:00.805Z,82.26
2018-08-30T01:52:28.799Z,81.36
2018-08-30T01:54:56.816Z,81.32
2018-08-30T01:57:24.804Z,81.45
2018-08-30T01:59:52.814Z,80.85
2018-08-30T02:02:20.802Z,81.71
2018-08-30T02:04:48.804Z,82.16
2018-08-30T02:07:16.808Z,81.75
2018-08-30T02:09:44.804Z,80.16
2018-08-30T02:12:12.828Z,80.75
2018-08-30T02:14:40.868Z,79.92
2018-08-30T02:17:08.861Z,79.82
2018-08-30T02:19:36.864Z,79.71
2018-08-30T02:22:04.893Z,81.11
2018-08-30T02:24:32.897Z,81.94
2018-08-30T02:27:00.901Z,82.31
2018-08-30T02:29:28.917Z,83.08
2018-08-30T02:31:56.906Z,82.28
2018-08-30T02:34:24.932Z,82.20
2018-08-30T02:36:52.941Z,82.14
2018-08-30T02:39:20.945Z,83.61
2018-08-30T02:41:48.945Z,83.08
2018-08-30T02:44:16.944Z,83.35
2018-08-30T02:46:44.944Z,83.08
2018-08-30T02:49:12.967Z,83.54
2018-08-30T02:51:40.958Z,83.89
2018-08-30T02:54:08.976Z,84.12
2018-08-30T02:56:36.972Z,84.44
2018-08-30T02:59:04.985Z,85.21
2018-08-30T03:01:32.976Z,85.80
2018-08-30T03:04:01.168Z,85.29
2018-08-30T03:06:29.204Z,85.42
2018-08-30T03:08:57.207Z,85.90
2018-08-30T03:11:25.213Z,86.05
2018-08-30T03:13:53.208Z,85.72
2018-08-30T03:16:21.222Z,86.01
2018-08-30T03:18:49.229Z,86.31
2018-08-30T03:21:17.263Z,87.28
2018-08-30T03:23:45.264Z,87.39
2018-08-30T03:26:13.287Z,86.66
2018-08-30T03:28:41.289Z,86.84
2018-08-30T03:31:09.340Z,86.94
2018-08-30T03:33:37.336Z,87.86
2018-08-30T03:36:05.353Z,87.74
2018-08-30T03:38:33.340Z,87.33
2018-08-30T03:41:01.356Z,87.02
2018-08-30T03:43:29.356Z,87.65
2018-08-30T03:45:57.461Z,86.92
2018-08-30T03:48:25.448Z,86.77
2018-08-30T03:50:53.473Z,86.74
2018-08-30T03:53:21.458Z,86.98
2018-08-30T03:55:49.501Z,88.11
2018-08-30T03:58:17.528Z,87.72
2018-08-30T04:00:45.532Z,87.23
2018-08-30T04:03:13.544Z,87.20
2018-08-30T04:05:41.561Z,86.23
2018-08-30T04:08:09.552Z,86.76
2018-08-30T04:10:37.612Z,86.63
2018-08-30T04:13:05.613Z,85.70
2018-08-30T04:15:33.761Z,86.18
2018-08-30T04:18:01.797Z,85.42
2018-08-30T04:20:29.829Z,86.23
2018-08-30T04:22:57.836Z,85.76
2018-08-30T04:25:25.856Z,85.39
2018-08-30T04:27:53.875Z,84.98
2018-08-30T04:30:22.112Z,86.17
2018-08-30T04:32:50.132Z,85.98
2018-08-30T04:35:18.132Z,85.39
2018-08-30T04:37:46.128Z,85.82
2018-08-30T04:40:14.209Z,85.28
2018-08-30T04:42:42.412Z,86.21
2018-08-30T04:45:10.385Z,84.86
2018-08-30T04:47:38.600Z,84.82
2018-08-30T04:50:06.631Z,84.33
2018-08-30T04:52:34.634Z,85.67
2018-08-30T04:55:02.653Z,85.61
2018-08-30T04:57:30.778Z,85.04
2018-08-30T04:59:58.773Z,84.71
2018-08-30T05:02:26.837Z,84.78
2018-08-30T05:04:54.832Z,85.68
2018-08-30T05:07:23.605Z,85.32
2018-08-30T05:09:51.729Z,85.26
2018-08-30T05:12:19.755Z,84.77
2018-08-30T05:14:47.777Z,85.33
2018-08-30T05:17:15.784Z,85.22
2018-08-30T05:19:43.806Z,85.88
2018-08-30T05:22:12.001Z,86.35
2018-08-30T05:24:39.992Z,86.20
2018-08-30T05:27:08.000Z,86.88
2018-08-30T05:29:37.029Z,86.64
2018-08-30T05:32:05.041Z,86.68
2018-08-30T05:34:33.841Z,85.68
2018-08-30T05:37:01.873Z,86.75
2018-08-30T05:39:30.065Z,86.63
2018-08-30T05:41:58.286Z,86.49
2018-08-30T05:44:26.330Z,86.53
2018-08-30T05:46:54.563Z,86.34
2018-08-30T05:49:22.619Z,86.37
2018-08-30T05:51:50.628Z,86.11
2018-08-30T05:54:18.681Z,85.99
2018-08-30T05:56:46.709Z,85.35
2018-08-30T05:59:20.617Z,86.62
2018-08-30T06:01:48.721Z,86.75
2018-08-30T06:04:17.796Z,86.69
2018-08-30T06:06:45.882Z,86.58
2018-08-30T06:09:13.976Z,87.90
2018-08-30T06:11:42.002Z,87.30
2018-08-30T06:14:10.356Z,87.27
2018-08-30T06:16:38.598Z,88.29
2018-08-30T06:19:06.581Z,88.10
2018-08-30T06:21:34.712Z,88.41
2018-08-30T06:24:02.819Z,88.49
2018-08-30T06:26:30.896Z,88.16
2018-08-30T06:28:58.995Z,87.88
2018-08-30T06:31:27.113Z,88.08
2018-08-30T06:33:55.120Z,87.91
2018-08-30T06:36:23.108Z,88.36
2018-08-30T06:38:51.351Z,88.26
2018-08-30T06:41:19.296Z,87.76
2018-08-30T06:43:47.365Z,87.84
2018-08-30T06:46:15.356Z,87.65
2018-08-30T06:48:43.510Z,88.28
2018-08-30T06:51:11.435Z,87.73
2018-08-30T06:53:39.420Z,87.43
2018-08-30T06:56:07.420Z,87.44
2018-08-30T06:58:35.505Z,87.97
2018-08-30T07:01:03.435Z,88.91
2018-08-30T07:03:31.444Z,87.18
2018-08-30T07:05:59.475Z,88.54
2018-08-30T07:08:27.564Z,87.65
2018-08-30T07:10:55.696Z,86.97
2018-08-30T07:13:23.780Z,87.62
2018-08-30T07:15:51.785Z,87.95
2018-08-30T07:18:19.808Z,86.89
2018-08-30T07:20:48.084Z,87.33
2018-08-30T07:23:16.072Z,86.36
2018-08-30T07:25:44.100Z,86.01
2018-08-30T07:28:12.132Z,87.19
2018-08-30T07:30:40.121Z,87.25
2018-08-30T07:33:08.126Z,87.71
2018-08-30T07:35:36.221Z,87.47
2018-08-30T07:38:04.243Z,86.40
2018-08-30T07:40:32.257Z,87.22
2018-08-30T07:43:00.336Z,86.79
2018-08-30T07:45:28.380Z,85.44
2018-08-30T07:47:56.385Z,86.10
2018-08-30T07:50:24.396Z,85.19
2018-08-30T07:52:52.412Z,85.42
2018-08-30T07:55:20.604Z,85.29
2018-08-30T07:57:48.613Z,85.77
2018-08-30T08:00:17.366Z,84.48
2018-08-30T08:02:47.244Z,84.73
2018-08-30T08:05:15.445Z,84.38
2018-08-30T08:07:43.480Z,84.16
2018-08-30T08:10:11.465Z,84.28
2018-08-30T08:12:39.492Z,84.81
2018-08-30T08:15:07.457Z,82.33
2018-08-30T08:17:35.457Z,84.07
2018-08-30T08:20:03.469Z,82.74
2018-08-30T08:27:18.483Z,82.87
2018-08-30T08:29:46.481Z,82.00
2018-08-30T08:32:14.460Z,82.14
2018-08-30T08:34:42.452Z,82.17
2018-08-30T08:37:10.541Z,81.24
2018-08-30T08:39:38.629Z,82.24
2018-08-30T08:42:06.788Z,82.14
2018-08-30T08:44:34.801Z,82.03
2018-08-30T08:47:02.800Z,81.43
2018-08-30T08:49:30.844Z,82.31
2018-08-30T08:51:58.832Z,82.22
2018-08-30T08:54:26.828Z,82.62
2018-08-30T08:56:54.855Z,82.54
2018-08-30T08:59:22.842Z,82.35
2018-08-30T09:01:50.840Z,82.50
2018-08-30T09:04:18.847Z,82.97
2018-08-30T09:06:46.869Z,81.64
2018-08-30T09:09:14.888Z,79.94
2018-08-30T09:11:43.246Z,79.45
2018-08-30T09:14:11.428Z,78.43
2018-08-30T09:16:39.481Z,78.29
2018-08-30T09:19:07.732Z,78.07
2018-08-30T09:21:35.741Z,78.44
2018-08-30T09:24:03.809Z,78.79
2018-08-30T09:26:31.844Z,78.38
2018-08-30T09:28:59.868Z,78.96
2018-08-30T09:31:27.888Z,79.17
2018-08-30T09:33:56.108Z,78.50
2018-08-30T09:36:24.146Z,78.69
2018-08-30T09:38:52.173Z,78.16
2018-08-30T09:41:20.342Z,78.66
2018-08-30T09:43:48.401Z,79.73
2018-08-30T09:46:16.381Z,79.97
2018-08-30T09:48:44.389Z,80.19
2018-08-30T09:51:12.392Z,80.76
2018-08-30T09:53:40.495Z,80.44
2018-08-30T09:56:08.553Z,79.47
2018-08-30T09:58:36.577Z,78.68
2018-08-30T10:01:10.085Z,78.92
2018-08-30T10:03:38.099Z,78.05
2018-08-30T10:06:06.108Z,78.99
2018-08-30T10:08:34.204Z,78.97
2018-08-30T10:11:02.242Z,79.52
2018-08-30T10:13:30.313Z,81.51
2018-08-30T10:15:58.384Z,80.75
2018-08-30T10:18:26.304Z,80.92
2018-08-30T10:20:54.340Z,81.03
2018-08-30T10:23:22.329Z,80.67
2018-08-30T10:25:50.337Z,80.03
2018-08-30T10:28:18.331Z,78.73
2018-08-30T10:30:46.368Z,80.05
2018-08-30T10:33:14.408Z,79.63
2018-08-30T10:35:42.456Z,78.15
2018-08-30T10:38:10.449Z,76.88
2018-08-30T10:40:38.692Z,76.52
2018-08-30T10:43:06.681Z,75.84
2018-08-30T10:45:34.705Z,76.18
2018-08-30T10:48:02.698Z,74.50
2018-08-30T10:50:30.694Z,75.79
2018-08-30T10:52:58.745Z,74.12
2018-08-30T10:55:26.745Z,74.07
2018-08-30T10:57:54.751Z,73.64
2018-08-30T11:00:22.784Z,72.97
2018-08-30T11:02:50.793Z,73.16
2018-08-30T11:05:18.828Z,73.04
2018-08-30T11:07:46.898Z,72.20
2018-08-30T11:10:15.049Z,72.95
2018-08-30T11:12:43.125Z,72.52
2018-08-30T11:15:11.132Z,70.89
2018-08-30T11:17:39.140Z,70.69
2018-08-30T11:20:07.152Z,71.75
2018-08-30T11:22:35.137Z,71.35
2018-08-30T11:25:03.194Z,70.46
2018-08-30T11:27:31.368Z,71.30
2018-08-30T11:29:59.400Z,69.73
2018-08-30T11:32:27.392Z,68.38
2018-08-30T11:34:55.392Z,68.11
2018-08-30T11:37:23.469Z,68.60
2018-08-30T11:39:51.488Z,67.06
2018-08-30T11:42:19.714Z,68.01
2018-08-30T11:44:47.693Z,69.00
2018-08-30T11:47:15.684Z,69.68
2018-08-30T11:49:43.912Z,68.73
2018-08-30T11:52:12.018Z,69.65
2018-08-30T11:54:40.021Z,68.84
2018-08-30T11:57:08.045Z,69.70
2018-08-30T11:59:36.037Z,68.91
2018-08-30T12:02:04.094Z,70.10
2018-08-30T12:04:32.114Z,70.09
2018-08-30T12:07:00.140Z,68.04
2018-08-30T12:09:28.126Z,67.66
2018-08-30T12:11:56.124Z,68.66
2018-08-30T12:14:24.154Z,68.49
2018-08-30T12:16:52.216Z,69.03
2018-08-30T12:19:20.200Z,68.26
2018-08-30T12:21:48.224Z,66.87
2018-08-30T12:24:16.225Z,67.46
2018-08-30T12:26:44.280Z,66.09
2018-08-30T12:29:12.368Z,64.80
2018-08-30T12:31:40.431Z,64.35
2018-08-30T12:34:08.411Z,65.58
2018-08-30T12:36:36.499Z,65.64
2018-08-30T12:39:05.778Z,64.45
2018-08-30T12:41:33.820Z,64.84
2018-08-30T12:44:01.978Z,63.06
2018-08-30T12:46:29.961Z,63.48
2018-08-30T12:48:58.036Z,62.99
2018-08-30T12:51:26.211Z,62.47
2018-08-30T12:53:54.270Z,62.08
2018-08-30T12:56:22.482Z,60.75
2018-08-30T12:58:55.102Z,63.92
2018-08-30T13:01:23.119Z,63.79
2018-08-30T13:03:51.405Z,63.64
2018-08-30T13:06:19.904Z,63.61
2018-08-30T13:08:48.037Z,65.52
2018-08-30T13:11:16.071Z,65.25
2018-08-30T13:13:44.165Z,65.21
2018-08-30T13:16:12.097Z,64.26
2018-08-30T13:18:40.093Z,64.70
2018-08-30T13:21:08.229Z,65.95
2018-08-30T13:23:36.277Z,65.81
2018-08-30T13:26:04.466Z,65.75
2018-08-30T13:28:32.384Z,65.71
2018-08-30T13:31:00.429Z,65.99
2018-08-30T13:33:28.559Z,63.86
2018-08-30T13:35:56.489Z,65.80
2018-08-30T13:38:24.484Z,64.37
2018-08-30T13:40:52.714Z,65.90
2018-08-30T13:43:20.841Z,64.68
2018-08-30T13:45:48.808Z,66.20
2018-08-30T13:48:16.831Z,64.02
2018-08-30T13:50:44.775Z,63.67
2018-08-30T13:53:13.296Z,65.29
2018-08-30T13:55:41.390Z,62.64
2018-08-30T13:58:09.261Z,63.65
2018-08-30T14:00:37.424Z,61.75
2018-08-30T14:03:05.230Z,61.63
2018-08-30T14:05:33.369Z,62.01
2018-08-30T14:08:01.311Z,61.40
2018-08-30T14:10:29.521Z,61.92
2018-08-30T14:12:57.236Z,61.97
2018-08-30T14:15:25.465Z,61.80
2018-08-30T14:17:53.043Z,62.77
2018-08-30T14:20:21.109Z,61.04
2018-08-30T14:22:49.188Z,61.99
2018-08-30T14:25:17.192Z,62.03
2018-08-30T14:27:45.278Z,61.96
2018-08-30T14:30:13.343Z,62.55
2018-08-30T14:32:41.358Z,63.37
2018-08-30T14:35:09.353Z,63.26
2018-08-30T14:37:37.391Z,63.94
2018-08-30T14:40:05.457Z,64.07
2018-08-30T14:42:33.373Z,64.50
2018-08-30T14:45:01.380Z,65.38
2018-08-30T14:47:29.494Z,64.81
2018-08-30T14:49:57.432Z,65.48
2018-08-30T14:52:25.413Z,64.59
2018-08-30T14:54:53.405Z,63.92
2018-08-30T14:57:21.416Z,64.28
2018-08-30T14:59:49.402Z,66.61
2018-08-30T15:02:17.408Z,64.80
2018-08-30T15:04:45.396Z,63.21
2018-08-30T15:07:13.445Z,62.37
2018-08-30T15:09:41.468Z,62.07
2018-08-30T15:12:09.639Z,60.24
2018-08-30T15:14:37.580Z,61.20
2018-08-30T15:17:05.667Z,60.32
2018-08-30T15:19:33.692Z,59.94
2018-08-30T15:22:01.716Z,60.74
2018-08-30T15:24:29.713Z,61.90
2018-08-30T15:26:57.779Z,61.20
2018-08-30T15:29:25.821Z,61.00
2018-08-30T15:31:53.718Z,59.76
2018-08-30T15:34:21.708Z,58.22
2018-08-30T15:36:49.713Z,59.41
2018-08-30T15:39:17.754Z,58.30
2018-08-30T15:41:45.802Z,60.05
2018-08-30T15:44:13.849Z,60.01
2018-08-30T15:46:41.912Z,60.65
2018-08-30T15:49:09.910Z,59.89
2018-08-30T15:51:37.981Z,59.30
2018-08-30T15:54:06.193Z,59.52
2018-08-30T15:56:34.224Z,61.17
2018-08-30T15:59:02.371Z,59.81
2018-08-30T16:01:30.317Z,59.39
2018-08-30T16:03:58.333Z,59.57
2018-08-30T16:06:26.370Z,58.60
2018-08-30T16:08:54.433Z,57.38
2018-08-30T16:11:22.519Z,57.92
2018-08-30T16:13:50.565Z,58.00
2018-08-30T16:16:18.757Z,57.57
2018-08-30T16:18:46.870Z,57.18
2018-08-30T16:21:14.821Z,58.07
2018-08-30T16:23:43.017Z,58.61
2018-08-30T16:26:11.024Z,59.16
2018-08-30T16:28:39.100Z,58.35
2018-08-30T16:31:07.131Z,59.52
2018-08-30T16:33:35.147Z,59.42
2018-08-30T16:36:03.193Z,60.08
2018-08-30T16:38:31.176Z,59.35
2018-08-30T16:40:59.293Z,59.31
2018-08-30T16:43:27.330Z,59.64
2018-08-30T16:45:55.402Z,58.30
2018-08-30T16:48:23.395Z,58.89
2018-08-30T16:50:51.428Z,60.03
2018-08-30T16:53:19.462Z,58.70
2018-08-30T16:55:47.406Z,58.50
2018-08-30T16:58:15.416Z,59.73
2018-08-30T17:00:43.501Z,58.17
2018-08-30T17:03:11.549Z,58.89
2018-08-30T17:05:39.617Z,58.13
2018-08-30T17:08:07.672Z,58.96
2018-08-30T17:10:35.688Z,59.35
2018-08-30T17:13:03.702Z,58.29
2018-08-30T17:15:32.757Z,58.46
2018-08-30T17:18:00.768Z,58.49
2018-08-30T17:20:34.404Z,56.56
2018-08-30T17:23:02.391Z,56.54
2018-08-30T17:25:30.485Z,57.09
2018-08-30T17:27:58.645Z,58.07
2018-08-30T17:30:26.691Z,57.84
2018-08-30T17:32:54.685Z,58.35
2018-08-30T17:35:22.960Z,58.98
2018-08-30T17:37:51.004Z,59.31
2018-08-30T17:40:19.041Z,59.31
2018-08-30T17:42:47.384Z,58.76
2018-08-30T17:45:15.436Z,59.42
2018-08-30T17:47:43.597Z,59.80
2018-08-30T17:50:11.650Z,60.09
2018-08-30T17:52:39.606Z,61.00
2018-08-30T17:55:07.836Z,61.12
2018-08-30T17:57:35.895Z,60.79
2018-08-30T18:00:05.905Z,61.44
2018-08-30T18:02:33.904Z,62.18
2018-08-30T18:05:01.907Z,62.77
2018-08-30T18:07:29.900Z,62.53
2018-08-30T18:09:57.917Z,62.90
2018-08-30T18:12:26.293Z,62.54
2018-08-30T18:14:54.211Z,62.46
2018-08-30T18:17:22.208Z,62.72
2018-08-30T18:19:50.282Z,62.86
2018-08-30T18:22:18.289Z,63.83
2018-08-30T18:24:46.280Z,62.75
2018-08-30T18:27:14.294Z,63.45
2018-08-30T18:29:42.484Z,62.74
2018-08-30T18:32:10.512Z,63.20
2018-08-30T18:34:38.513Z,62.80
2018-08-30T18:37:06.653Z,63.39
2018-08-30T18:39:34.665Z,63.51
2018-08-30T18:42:02.684Z,63.53
2018-08-30T18:44:30.685Z,64.14
2018-08-30T18:46:58.692Z,64.43
2018-08-30T18:49:26.693Z,65.83
2018-08-30T18:51:54.684Z,65.10
2018-08-30T18:54:22.703Z,65.18
2018-08-30T18:56:50.721Z,66.19
2018-08-30T18:59:18.705Z,65.00
2018-08-30T19:01:46.764Z,66.07
2018-08-30T19:04:14.709Z,65.99
2018-08-30T19:06:42.713Z,66.16
2018-08-30T19:09:11.833Z,65.69
2018-08-30T19:11:40.318Z,66.30
2018-08-30T19:14:08.324Z,66.07
2018-08-30T19:16:41.917Z,65.61
2018-08-30T19:19:12.077Z,66.66
2018-08-30T19:21:40.200Z,66.23
2018-08-30T19:24:12.384Z,66.85
2018-08-30T19:26:40.592Z,67.10
2018-08-30T19:29:08.607Z,66.30
2018-08-30T19:31:36.676Z,66.91
2018-08-30T19:34:04.782Z,66.63
2018-08-30T19:36:33.116Z,66.45
2018-08-30T19:39:02.020Z,66.19
2018-08-30T19:41:30.139Z,67.59
2018-08-30T19:43:58.104Z,66.57
2018-08-30T19:46:26.110Z,68.01
2018-08-30T19:48:54.126Z,68.35
2018-08-30T19:51:22.165Z,68.69
2018-08-30T19:53:50.198Z,68.17
2018-08-30T19:56:18.201Z,68.43
2018-08-30T19:58:46.237Z,67.72
2018-08-30T20:01:14.273Z,68.29
2018-08-30T20:03:42.249Z,67.49
2018-08-30T20:06:17.044Z,68.32
2018-08-30T20:08:45.109Z,67.91
2018-08-30T20:11:13.232Z,69.56
2018-08-30T20:13:41.324Z,69.50
2018-08-30T20:16:09.460Z,70.26
2018-08-30T20:18:37.509Z,70.38
2018-08-30T20:21:05.541Z,70.74
2018-08-30T20:23:33.609Z,70.72
2018-08-30T20:26:01.798Z,70.55
2018-08-30T20:28:29.858Z,72.03
2018-08-30T20:30:57.913Z,71.41
2018-08-30T20:33:26.008Z,71.38
2018-08-30T20:35:54.023Z,71.58
2018-08-30T20:38:22.258Z,71.42
2018-08-30T20:40:50.432Z,70.79
2018-08-30T20:43:18.444Z,71.68
2018-08-30T20:45:46.451Z,71.04
2018-08-30T20:48:14.449Z,71.73
2018-08-30T20:50:42.452Z,72.28
2018-08-30T20:53:10.539Z,72.15
2018-08-30T20:55:38.570Z,72.10
2018-08-30T20:58:06.691Z,72.79
2018-08-30T21:00:34.695Z,72.50
2018-08-30T21:03:02.796Z,72.04
2018-08-30T21:05:30.836Z,71.87
2018-08-30T21:07:58.880Z,71.87
2018-08-30T21:10:26.908Z,72.48
2018-08-30T21:12:54.909Z,73.32
2018-08-30T21:15:22.946Z,72.31
2018-08-30T21:17:50.948Z,73.27
2018-08-30T21:20:18.947Z,73.75
2018-08-30T21:22:47.004Z,72.99
2018-08-30T21:25:15.000Z,73.48
2018-08-30T21:27:43.074Z,73.56
2018-08-30T21:30:11.113Z,73.39
2018-08-30T21:32:39.113Z,73.42
2018-08-30T21:35:07.169Z,72.72
2018-08-30T21:37:35.176Z,73.33
2018-08-30T21:40:03.213Z,72.51
2018-08-30T21:42:31.284Z,73.06
2018-08-30T21:44:59.307Z,73.44
2018-08-30T21:47:27.298Z,73.51
2018-08-30T21:49:55.421Z,74.05
2018-08-30T21:52:23.429Z,73.70
2018-08-30T21:54:51.438Z,73.66
2018-08-30T21:57:19.561Z,74.13
2018-08-30T21:59:47.592Z,73.66
2018-08-30T22:02:15.625Z,74.49
2018-08-30T22:04:43.613Z,73.52
2018-08-30T22:07:11.609Z,73.04
2018-08-30T22:09:39.608Z,73.92
2018-08-30T22:12:07.618Z,73.79
2018-08-30T22:14:35.621Z,74.04
2018-08-30T22:17:03.716Z,73.62
2018-08-30T22:19:31.824Z,74.15
2018-08-30T22:21:59.821Z,73.83
2018-08-30T22:24:27.855Z,73.94
2018-08-30T22:26:55.902Z,73.54
2018-08-30T22:29:23.941Z,73.10
2018-08-30T22:31:51.979Z,73.87
2018-08-30T22:34:20.140Z,74.77
2018-08-30T22:36:48.137Z,73.73
2018-08-30T22:39:16.144Z,74.49
2018-08-30T22:41:44.120Z,75.09
2018-08-30T22:44:12.128Z,75.69
2018-08-30T22:46:40.129Z,75.60
2018-08-30T22:49:08.134Z,75.36
2018-08-30T22:51:36.189Z,75.45
2018-08-30T22:54:04.253Z,76.24
2018-08-30T22:56:32.240Z,76.61
2018-08-30T22:59:00.524Z,76.34
2018-08-30T23:01:28.529Z,75.49
2018-08-30T23:03:56.541Z,75.87
2018-08-30T23:06:24.537Z,75.73
2018-08-30T23:08:52.529Z,76.43
2018-08-30T23:11:20.524Z,75.52
2018-08-30T23:13:48.568Z,75.70
2018-08-30T23:16:16.595Z,75.76
2018-08-30T23:18:44.603Z,75.34
2018-08-30T23:21:12.627Z,75.48
2018-08-30T23:23:40.627Z,76.03
2018-08-30T23:26:08.616Z,75.10
2018-08-30T23:28:36.660Z,74.00
2018-08-30T23:31:04.688Z,73.84
2018-08-30T23:33:32.769Z,73.70
2018-08-30T23:36:00.787Z,73.73
2018-08-30T23:38:28.773Z,74.36
2018-08-30T23:40:56.761Z,76.02
2018-08-30T23:43:24.805Z,76.16
2018-08-30T23:45:52.818Z,75.52
2018-08-30T23:48:20.816Z,76.58
2018-08-30T23:50:48.824Z,76.16
2018-08-30T23:53:16.822Z,77.59
2018-08-30T23:55:44.912Z,78.99
2018-08-30T23:58:24.424Z,77.55
